createdAt,value
2022-08-10T00:01:51.859Z,19.80
2022-08-10T00:04:22.768Z,19.80
2022-08-10T00:06:53.185Z,19.70
2022-08-10T00:09:21.609Z,19.70
2022-08-10T00:11:49.796Z,19.60
2022-08-10T00:14:18.010Z,19.60
2022-08-10T00:16:46.330Z,19.60
2022-08-10T00:19:17.241Z,19.50
2022-08-10T00:21:47.254Z,19.60
2022-08-10T00:24:15.501Z,19.60
2022-08-10T00:28:00.916Z,19.50
2022-08-10T00:29:33.673Z,19.50
2022-08-10T00:32:01.880Z,19.40
2022-08-10T00:34:30.056Z,19.40
2022-08-10T00:36:59.774Z,19.40
2022-08-10T00:39:28.083Z,19.40
2022-08-10T00:42:02.358Z,19.30
2022-08-10T00:44:37.212Z,19.30
2022-08-10T00:47:05.734Z,19.30
2022-08-10T00:49:33.914Z,19.20
2022-08-10T00:52:05.730Z,19.20
2022-08-10T00:54:33.919Z,19.20
2022-08-10T00:57:16.690Z,19.20
2022-08-10T00:59:58.468Z,19.10
2022-08-10T01:02:28.725Z,19.10
2022-08-10T01:04:59.671Z,19.10
2022-08-10T01:07:54.876Z,19.10
2022-08-10T01:10:30.120Z,19.00
2022-08-10T01:13:02.339Z,19.00
2022-08-10T01:15:32.611Z,19.00
2022-08-10T01:18:03.611Z,19.00
2022-08-10T01:20:37.069Z,19.00
2022-08-10T01:23:38.513Z,19.00
2022-08-10T01:26:40.527Z,18.90
2022-08-10T01:29:41.517Z,18.90
2022-08-10T01:32:11.595Z,18.90
2022-08-10T01:34:42.513Z,18.90
2022-08-10T01:37:14.598Z,18.90
2022-08-10T01:39:45.394Z,18.90
2022-08-10T01:42:16.079Z,18.80
2022-08-10T01:44:47.191Z,18.80
2022-08-10T01:47:36.812Z,18.80
2022-08-10T01:50:08.281Z,18.70
2022-08-10T01:52:37.026Z,18.70
2022-08-10T01:55:06.198Z,18.70
2022-08-10T01:57:35.754Z,18.70
2022-08-10T02:00:03.994Z,18.70
2022-08-10T02:02:34.253Z,18.60
2022-08-10T02:05:02.982Z,18.70
2022-08-10T02:07:31.157Z,18.60
2022-08-10T02:10:09.741Z,18.60
2022-08-10T02:12:37.936Z,18.60
2022-08-10T02:15:08.614Z,18.50
2022-08-10T02:17:57.671Z,18.50
2022-08-10T02:20:32.149Z,18.50
2022-08-10T02:23:01.984Z,18.50
2022-08-10T02:25:40.670Z,18.40
2022-08-10T02:28:11.262Z,18.40
2022-08-10T02:30:39.940Z,18.40
2022-08-10T02:33:11.029Z,18.40
2022-08-10T02:35:55.083Z,18.40
2022-08-10T02:38:58.281Z,18.40
2022-08-10T02:45:14.849Z,18.40
2022-08-10T02:45:22.448Z,18.30
2022-08-10T02:46:57.413Z,18.30
2022-08-10T02:49:30.475Z,18.30
2022-08-10T02:52:06.891Z,18.30
2022-08-10T02:54:38.479Z,18.30
2022-08-10T02:57:09.593Z,18.30
2022-08-10T02:59:41.280Z,18.30
2022-08-10T03:02:11.976Z,18.20
2022-08-10T03:04:55.976Z,18.20
2022-08-10T03:07:43.515Z,18.20
2022-08-10T03:10:15.466Z,18.20
2022-08-10T03:12:49.245Z,18.20
2022-08-10T03:15:17.872Z,18.20
2022-08-10T03:17:58.280Z,18.20
2022-08-10T03:20:38.177Z,18.10
2022-08-10T03:23:11.082Z,18.10
2022-08-10T03:25:39.659Z,18.20
2022-08-10T03:28:07.994Z,18.10
2022-08-10T03:30:36.363Z,18.10
2022-08-10T03:33:05.802Z,18.10
2022-08-10T03:35:35.634Z,18.10
2022-08-10T03:38:03.932Z,18.10
2022-08-10T03:40:45.182Z,18.10
2022-08-10T03:43:18.832Z,18.10
2022-08-10T03:45:55.491Z,18.00
2022-08-10T03:48:44.735Z,18.00
2022-08-10T03:51:14.550Z,18.00
2022-08-10T03:54:04.246Z,18.00
2022-08-10T03:56:34.680Z,18.00
2022-08-10T03:59:02.878Z,18.00
2022-08-10T04:02:41.610Z,17.90
2022-08-10T04:04:24.049Z,17.90
2022-08-10T04:06:55.577Z,17.90
2022-08-10T04:09:24.793Z,17.90
2022-08-10T04:12:11.989Z,17.90
2022-08-10T04:14:49.700Z,17.90
2022-08-10T04:18:03.444Z,17.90
2022-08-10T04:20:12.475Z,17.90
2022-08-10T04:22:42.417Z,17.90
2022-08-10T04:25:10.943Z,17.90
2022-08-10T04:27:39.214Z,17.90
2022-08-10T04:30:08.587Z,17.90
2022-08-10T04:32:37.051Z,17.90
2022-08-10T04:35:05.838Z,17.90
2022-08-10T04:37:34.007Z,17.90
2022-08-10T04:40:03.680Z,18.00
2022-08-10T04:42:32.158Z,17.90
2022-08-10T04:45:00.704Z,17.90
2022-08-10T04:47:58.045Z,17.90
2022-08-10T04:50:17.618Z,18.00
2022-08-10T04:52:46.788Z,18.00
2022-08-10T04:55:16.352Z,18.00
2022-08-10T04:57:44.565Z,18.00
2022-08-10T05:00:19.128Z,18.00
2022-08-10T05:02:47.855Z,18.00
2022-08-10T05:05:16.219Z,18.00
2022-08-10T05:07:54.295Z,18.00
2022-08-10T05:10:27.906Z,18.10
2022-08-10T05:12:56.303Z,18.10
2022-08-10T05:15:24.664Z,18.10
2022-08-10T05:18:08.455Z,18.10
2022-08-10T05:20:40.613Z,18.10
2022-08-10T05:23:09.088Z,18.20
2022-08-10T05:25:39.112Z,18.20
2022-08-10T05:28:07.562Z,18.20
2022-08-10T05:30:35.787Z,18.30
2022-08-10T05:33:08.659Z,18.30
2022-08-10T05:35:56.626Z,18.30
2022-08-10T05:38:26.922Z,18.40
2022-08-10T05:40:58.393Z,18.40
2022-08-10T05:43:26.921Z,18.50
2022-08-10T05:46:16.949Z,18.50
2022-08-10T05:48:58.956Z,18.60
2022-08-10T05:51:28.677Z,18.60
2022-08-10T05:54:01.205Z,18.70
2022-08-10T05:56:55.980Z,18.70
2022-08-10T06:00:34.195Z,18.70
2022-08-10T06:02:31.616Z,18.80
2022-08-10T06:05:12.682Z,18.90
2022-08-10T06:07:42.948Z,19.00
2022-08-10T06:10:31.551Z,19.00
2022-08-10T06:13:29.930Z,19.10
2022-08-10T06:16:00.890Z,19.10
2022-08-10T06:18:29.095Z,19.20
2022-08-10T06:20:57.699Z,19.20
2022-08-10T06:23:26.870Z,19.30
2022-08-10T06:26:09.672Z,19.40
2022-08-10T06:29:01.947Z,19.50
2022-08-10T06:31:46.793Z,19.50
2022-08-10T06:34:18.634Z,19.60
2022-08-10T06:36:46.867Z,19.70
2022-08-10T06:39:33.919Z,19.80
2022-08-10T06:42:15.309Z,19.90
2022-08-10T06:44:52.690Z,20.00
2022-08-10T06:47:23.072Z,20.30
2022-08-10T06:49:53.084Z,20.60
2022-08-10T06:52:21.493Z,20.90
2022-08-10T06:54:50.612Z,21.20
2022-08-10T06:57:18.915Z,21.50
2022-08-10T06:59:48.854Z,21.60
2022-08-10T07:02:22.679Z,21.70
2022-08-10T07:04:54.057Z,21.70
2022-08-10T07:07:23.738Z,21.80
2022-08-10T07:09:52.942Z,22.00
2022-08-10T07:12:22.038Z,22.10
2022-08-10T07:14:51.340Z,22.20
2022-08-10T07:17:21.968Z,22.30
2022-08-10T07:19:52.167Z,22.30
2022-08-10T07:23:01.373Z,22.40
2022-08-10T07:25:13.450Z,22.50
2022-08-10T07:28:00.017Z,22.50
2022-08-10T07:30:29.747Z,22.60
2022-08-10T07:33:12.188Z,22.70
2022-08-10T07:35:42.259Z,22.80
2022-08-10T07:38:18.684Z,23.00
2022-08-10T07:40:47.784Z,23.10
2022-08-10T07:43:18.931Z,23.10
2022-08-10T07:45:47.072Z,23.30
2022-08-10T07:48:17.689Z,23.40
2022-08-10T07:50:46.400Z,23.50
2022-08-10T07:53:18.727Z,23.60
2022-08-10T07:56:04.146Z,23.70
2022-08-10T07:58:47.245Z,23.80
2022-08-10T08:01:22.027Z,23.90
2022-08-10T08:04:05.896Z,24.00
2022-08-10T08:06:40.362Z,24.00
2022-08-10T08:09:08.553Z,24.20
2022-08-10T08:11:38.422Z,24.20
2022-08-10T08:14:07.118Z,24.30
2022-08-10T08:16:36.661Z,24.40
2022-08-10T08:24:10.494Z,24.80
2022-08-10T08:24:44.341Z,24.90
2022-08-10T08:27:15.165Z,25.10
2022-08-10T08:29:46.164Z,25.30
2022-08-10T08:32:14.729Z,25.40
2022-08-10T08:34:45.175Z,25.50
2022-08-10T08:37:18.865Z,25.70
2022-08-10T08:40:04.081Z,25.80
2022-08-10T08:42:46.042Z,26.00
2022-08-10T08:45:17.872Z,26.20
2022-08-10T08:48:26.568Z,26.50
2022-08-10T08:51:08.494Z,26.60
2022-08-10T08:54:01.140Z,26.70
2022-08-10T08:56:37.074Z,26.80
2022-08-10T08:59:19.361Z,26.80
2022-08-10T09:02:04.324Z,27.00
2022-08-10T09:04:42.667Z,27.20
2022-08-10T09:08:00.434Z,27.40
2022-08-10T09:10:38.862Z,27.60
2022-08-10T09:13:11.149Z,27.80
2022-08-10T09:15:42.218Z,27.90
2022-08-10T09:18:15.171Z,28.00
2022-08-10T09:20:46.706Z,28.20
2022-08-10T09:23:19.678Z,28.40
2022-08-10T09:25:54.773Z,28.60
2022-08-10T09:28:30.175Z,28.70
2022-08-10T09:36:23.354Z,29.10
2022-08-10T09:36:52.054Z,29.10
2022-08-10T09:40:50.091Z,29.30
2022-08-10T09:42:17.042Z,29.30
2022-08-10T09:44:58.060Z,29.50
2022-08-10T09:48:00.722Z,29.60
2022-08-10T09:50:26.621Z,29.60
2022-08-10T09:53:10.668Z,29.70
2022-08-10T09:56:17.549Z,29.80
2022-08-10T09:58:40.249Z,29.90
2022-08-10T10:01:57.911Z,30.00
2022-08-10T10:04:05.520Z,30.00
2022-08-10T10:06:41.620Z,30.10
2022-08-10T10:09:12.176Z,30.20
2022-08-10T10:11:48.048Z,30.30
2022-08-10T10:14:23.358Z,30.40
2022-08-10T10:17:03.584Z,30.50
2022-08-10T10:19:47.687Z,30.70
2022-08-10T10:22:26.536Z,30.70
2022-08-10T10:24:58.645Z,30.80
2022-08-10T10:27:34.137Z,30.90
2022-08-10T10:30:07.694Z,31.10
2022-08-10T10:32:44.961Z,31.20
2022-08-10T10:35:18.382Z,31.30
2022-08-10T10:38:01.953Z,31.30
2022-08-10T10:40:35.891Z,31.30
2022-08-10T10:43:08.479Z,31.30
2022-08-10T10:45:50.118Z,31.30
2022-08-10T10:48:24.277Z,31.30
2022-08-10T10:51:04.915Z,31.40
2022-08-10T10:53:40.394Z,31.30
2022-08-10T10:56:19.574Z,31.40
2022-08-10T10:58:54.418Z,31.60
2022-08-10T11:01:27.409Z,31.70
2022-08-10T11:04:07.644Z,31.80
2022-08-10T11:06:52.844Z,31.80
2022-08-10T11:10:03.728Z,31.80
2022-08-10T11:12:32.856Z,31.80
2022-08-10T11:15:04.255Z,31.80
2022-08-10T11:17:38.746Z,31.80
2022-08-10T11:20:13.599Z,31.80
2022-08-10T11:22:45.978Z,31.90
2022-08-10T11:25:16.356Z,32.00
2022-08-10T11:27:50.724Z,32.00
2022-08-10T11:30:20.558Z,32.00
2022-08-10T11:33:03.065Z,32.10
2022-08-10T11:35:35.818Z,32.10
2022-08-10T11:38:28.671Z,32.20
2022-08-10T11:41:14.539Z,32.30
2022-08-10T11:43:55.418Z,32.30
2022-08-10T11:46:28.778Z,32.40
2022-08-10T11:49:05.052Z,32.50
2022-08-10T11:51:40.205Z,32.70
2022-08-10T11:54:10.153Z,32.70
2022-08-10T11:56:44.636Z,32.70
2022-08-10T11:59:30.018Z,32.80
2022-08-10T12:01:58.507Z,32.80
2022-08-10T12:04:28.678Z,32.80
2022-08-10T12:06:58.581Z,32.90
2022-08-10T12:10:09.738Z,33.10
2022-08-10T12:12:15.186Z,33.20
2022-08-10T12:14:48.136Z,33.30
2022-08-10T12:17:21.880Z,33.40
2022-08-10T12:20:02.598Z,33.40
2022-08-10T12:22:34.809Z,33.60
2022-08-10T12:25:04.537Z,33.60
2022-08-10T12:27:38.536Z,33.60
2022-08-10T12:30:08.037Z,33.70
2022-08-10T12:32:42.723Z,33.60
2022-08-10T12:35:29.111Z,33.60
2022-08-10T12:38:08.806Z,33.50
2022-08-10T12:40:42.116Z,33.50
2022-08-10T12:44:04.924Z,33.60
2022-08-10T12:46:07.006Z,33.70
2022-08-10T12:48:37.771Z,33.80
2022-08-10T12:51:12.219Z,33.90
2022-08-10T12:53:48.577Z,34.10
2022-08-10T12:56:26.898Z,34.20
2022-08-10T12:58:58.934Z,34.30
2022-08-10T13:02:06.427Z,34.40
2022-08-10T13:04:29.392Z,34.50
2022-08-10T13:07:01.547Z,34.60
2022-08-10T13:09:29.930Z,34.60
2022-08-10T13:12:35.267Z,34.60
2022-08-10T13:14:49.934Z,34.40
2022-08-10T13:17:22.935Z,34.30
2022-08-10T13:19:55.075Z,34.20
2022-08-10T13:22:30.308Z,34.30
2022-08-10T13:25:00.177Z,34.50
2022-08-10T13:28:01.189Z,34.50
2022-08-10T13:30:33.646Z,34.60
2022-08-10T13:33:06.760Z,34.80
2022-08-10T13:35:35.332Z,34.90
2022-08-10T13:38:05.189Z,35.00
2022-08-10T13:40:34.004Z,34.90
2022-08-10T13:43:03.052Z,34.90
2022-08-10T13:45:31.285Z,34.90
2022-08-10T13:48:09.850Z,34.90
2022-08-10T13:50:38.155Z,34.90
2022-08-10T13:53:14.467Z,35.10
2022-08-10T13:55:55.119Z,35.10
2022-08-10T13:58:26.182Z,35.00
2022-08-10T14:00:54.413Z,34.90
2022-08-10T14:03:22.667Z,34.90
2022-08-10T14:05:53.525Z,34.90
2022-08-10T14:08:25.280Z,35.00
2022-08-10T14:11:08.998Z,35.00
2022-08-10T14:13:40.834Z,34.90
2022-08-10T14:16:10.803Z,34.70
2022-08-10T14:18:39.326Z,34.50
2022-08-10T14:21:07.794Z,34.40
2022-08-10T14:23:42.363Z,34.40
2022-08-10T14:26:23.466Z,34.30
2022-08-10T14:28:54.500Z,34.20
2022-08-10T14:31:25.148Z,34.00
2022-08-10T14:33:55.270Z,33.90
2022-08-10T14:36:32.090Z,33.90
2022-08-10T14:39:02.355Z,34.00
2022-08-10T14:42:01.556Z,34.10
2022-08-10T14:44:20.135Z,34.20
2022-08-10T14:46:51.405Z,34.30
2022-08-10T14:49:25.263Z,34.30
2022-08-10T14:51:58.996Z,34.40
2022-08-10T14:54:29.915Z,34.40
2022-08-10T14:57:11.413Z,34.30
2022-08-10T15:00:24.329Z,34.30
2022-08-10T15:02:39.815Z,34.10
2022-08-10T15:05:18.456Z,33.90
2022-08-10T15:07:47.149Z,33.70
2022-08-10T15:10:28.791Z,33.70
2022-08-10T15:12:58.747Z,33.80
2022-08-10T15:15:28.937Z,33.90
2022-08-10T15:17:58.248Z,34.00
2022-08-10T15:20:28.619Z,34.10
2022-08-10T15:23:01.002Z,34.00
2022-08-10T15:25:36.484Z,33.90
2022-08-10T15:28:08.163Z,33.90
2022-08-10T15:30:40.483Z,33.80
2022-08-10T15:34:03.403Z,33.80
2022-08-10T15:36:34.409Z,33.80
2022-08-10T15:39:03.977Z,33.70
2022-08-10T15:41:58.626Z,33.70
2022-08-10T15:44:47.575Z,33.60
2022-08-10T15:47:20.888Z,33.50
2022-08-10T15:49:53.665Z,33.40
2022-08-10T15:52:59.775Z,33.20
2022-08-10T15:55:41.715Z,33.10
2022-08-10T15:58:07.152Z,32.90
2022-08-10T16:00:37.510Z,32.90
2022-08-10T16:03:13.141Z,33.00
2022-08-10T16:06:01.858Z,33.00
2022-08-10T16:08:55.846Z,33.00
2022-08-10T16:11:28.071Z,32.90
2022-08-10T16:14:26.619Z,32.80
2022-08-10T16:16:55.925Z,32.60
2022-08-10T16:19:25.591Z,32.60
2022-08-10T16:21:58.330Z,32.50
2022-08-10T16:24:27.950Z,32.50
2022-08-10T16:26:56.171Z,32.40
2022-08-10T16:29:29.193Z,32.40
2022-08-10T16:32:01.805Z,32.30
2022-08-10T16:34:32.131Z,32.30
2022-08-10T16:37:02.467Z,32.30
2022-08-10T16:39:58.133Z,32.20
2022-08-10T16:42:22.899Z,32.20
2022-08-10T16:44:55.779Z,32.10
2022-08-10T16:47:27.625Z,32.00
2022-08-10T16:49:56.914Z,31.90
2022-08-10T16:52:25.663Z,31.70
2022-08-10T16:54:55.198Z,31.70
2022-08-10T16:57:23.928Z,31.60
2022-08-10T16:59:54.818Z,31.50
2022-08-10T17:02:34.425Z,31.40
2022-08-10T17:05:03.846Z,31.30
2022-08-10T17:07:32.412Z,31.20
2022-08-10T17:10:07.765Z,31.20
2022-08-10T17:12:40.262Z,31.20
2022-08-10T17:15:12.489Z,31.10
2022-08-10T17:17:50.752Z,31.00
2022-08-10T17:20:32.116Z,30.90
2022-08-10T17:23:02.819Z,30.80
2022-08-10T17:25:48.479Z,30.80
2022-08-10T17:28:34.612Z,30.70
2022-08-10T17:31:24.095Z,30.70
2022-08-10T17:33:59.189Z,30.70
2022-08-10T17:36:33.477Z,30.70
2022-08-10T17:39:01.794Z,30.70
2022-08-10T17:41:31.258Z,30.80
2022-08-10T17:44:03.136Z,30.80
2022-08-10T17:46:35.051Z,30.80
2022-08-10T17:49:07.166Z,30.80
2022-08-10T17:51:35.361Z,30.80
2022-08-10T17:54:09.106Z,30.70
2022-08-10T17:56:40.326Z,30.70
2022-08-10T17:59:17.340Z,30.50
2022-08-10T18:02:01.247Z,30.20
2022-08-10T18:04:41.180Z,30.00
2022-08-10T18:07:11.535Z,29.80
2022-08-10T18:09:42.365Z,29.50
2022-08-10T18:12:18.474Z,29.30
2022-08-10T18:14:48.203Z,29.10
2022-08-10T18:17:20.154Z,28.90
2022-08-10T18:19:52.018Z,28.80
2022-08-10T18:22:21.792Z,28.60
2022-08-10T18:24:50.126Z,28.50
2022-08-10T18:27:20.359Z,28.30
2022-08-10T18:29:52.346Z,28.20
2022-08-10T18:32:24.584Z,28.10
2022-08-10T18:34:54.461Z,28.00
2022-08-10T18:37:23.633Z,27.90
2022-08-10T18:39:51.941Z,27.80
2022-08-10T18:42:23.420Z,27.70
2022-08-10T18:44:54.832Z,27.70
2022-08-10T18:47:31.634Z,27.70
2022-08-10T18:50:05.695Z,27.60
2022-08-10T18:52:34.880Z,27.50
2022-08-10T18:55:14.486Z,27.40
2022-08-10T18:58:28.488Z,27.40
2022-08-10T19:01:11.444Z,27.30
2022-08-10T19:04:28.142Z,27.20
2022-08-10T19:07:31.541Z,27.10
2022-08-10T19:10:07.178Z,27.00
2022-08-10T19:12:49.047Z,26.90
2022-08-10T19:15:24.888Z,26.80
2022-08-10T19:18:06.844Z,26.70
2022-08-10T19:20:45.116Z,26.60
2022-08-10T19:23:28.177Z,26.50
2022-08-10T19:26:41.238Z,26.40
2022-08-10T19:28:52.508Z,26.40
2022-08-10T19:31:22.564Z,26.40
2022-08-10T19:34:11.793Z,26.20
2022-08-10T19:36:47.368Z,26.20
2022-08-10T19:39:29.028Z,26.10
2022-08-10T19:42:11.946Z,26.00
2022-08-10T19:44:44.363Z,26.00
2022-08-10T19:47:15.507Z,25.90
2022-08-10T19:49:55.364Z,25.80
2022-08-10T19:52:28.708Z,25.70
2022-08-10T19:55:06.051Z,25.60
2022-08-10T19:57:36.441Z,25.60
2022-08-10T20:00:19.758Z,25.60
2022-08-10T20:02:58.314Z,25.50
2022-08-10T20:05:31.564Z,25.40
2022-08-10T20:08:06.670Z,25.40
2022-08-10T20:10:43.249Z,25.30
2022-08-10T20:13:15.268Z,25.30
2022-08-10T20:15:46.311Z,25.20
2022-08-10T20:18:22.914Z,25.10
2022-08-10T20:20:53.095Z,25.10
2022-08-10T20:23:23.503Z,25.00
2022-08-10T20:25:56.540Z,25.00
2022-08-10T20:28:32.378Z,25.00
2022-08-10T20:31:05.997Z,24.90
2022-08-10T20:33:39.530Z,24.80
2022-08-10T20:36:12.538Z,24.80
2022-08-10T20:38:44.605Z,24.80
2022-08-10T20:41:19.477Z,24.70
2022-08-10T20:43:58.030Z,24.70
2022-08-10T20:46:27.911Z,24.60
2022-08-10T20:48:58.207Z,24.60
2022-08-10T20:51:58.882Z,24.50
2022-08-10T20:54:18.058Z,24.50
2022-08-10T20:56:53.306Z,24.40
2022-08-10T21:00:02.256Z,24.40
2022-08-10T21:02:36.841Z,24.30
2022-08-10T21:05:10.817Z,24.30
2022-08-10T21:08:06.388Z,24.20
2022-08-10T21:10:46.730Z,24.20
2022-08-10T21:13:22.898Z,24.20
2022-08-10T21:15:56.753Z,24.10
2022-08-10T21:18:43.936Z,24.10
2022-08-10T21:21:37.616Z,24.10
2022-08-10T21:24:10.738Z,24.10
2022-08-10T21:26:43.078Z,24.10
2022-08-10T21:29:37.884Z,24.00
2022-08-10T21:32:12.392Z,23.90
2022-08-10T21:34:50.701Z,23.90
2022-08-10T21:37:25.866Z,23.90
2022-08-10T21:40:34.519Z,23.90
2022-08-10T21:43:43.933Z,23.80
2022-08-10T21:46:33.199Z,23.80
2022-08-10T21:49:23.076Z,23.80
2022-08-10T21:52:12.410Z,23.80
2022-08-10T21:55:03.379Z,23.70
2022-08-10T21:58:00.408Z,23.70
2022-08-10T22:00:45.993Z,23.80
2022-08-10T22:03:39.326Z,23.70
2022-08-10T22:06:25.839Z,23.70
2022-08-10T22:09:20.986Z,23.60
2022-08-10T22:12:09.910Z,23.60
2022-08-10T22:15:10.871Z,23.60
2022-08-10T22:18:04.758Z,23.60
2022-08-10T22:20:53.933Z,23.60
2022-08-10T22:23:48.369Z,23.60
2022-08-10T22:27:00.625Z,23.50
2022-08-10T22:29:53.368Z,23.50
2022-08-10T22:32:45.625Z,23.40
2022-08-10T22:36:04.549Z,23.30
2022-08-10T22:39:02.578Z,23.30
2022-08-10T22:41:52.870Z,23.10
2022-08-10T22:44:38.740Z,23.10
2022-08-10T22:47:24.556Z,23.00
2022-08-10T22:49:51.717Z,23.00
2022-08-10T22:52:22.594Z,23.00
2022-08-10T22:55:10.703Z,22.90
2022-08-10T22:58:03.022Z,22.90
2022-08-10T23:00:31.802Z,22.90
2022-08-10T23:03:03.582Z,22.80
2022-08-10T23:05:33.685Z,22.80
2022-08-10T23:08:08.713Z,22.80
2022-08-10T23:10:39.645Z,22.80
2022-08-10T23:13:09.262Z,22.70
2022-08-10T23:15:55.985Z,22.70
2022-08-10T23:18:49.734Z,22.70
2022-08-10T23:21:17.890Z,22.70
2022-08-10T23:23:47.879Z,22.70
2022-08-10T23:26:19.327Z,22.70
2022-08-10T23:28:58.342Z,22.60
2022-08-10T23:32:01.427Z,22.60
2022-08-10T23:34:23.825Z,22.50
2022-08-10T23:36:52.240Z,22.50
2022-08-10T23:39:26.017Z,22.50
2022-08-10T23:41:57.071Z,22.50
2022-08-10T23:44:25.718Z,22.50
2022-08-10T23:46:55.037Z,22.40
2022-08-10T23:49:23.307Z,22.40
2022-08-10T23:51:55.558Z,22.30
2022-08-10T23:54:26.483Z,22.30
2022-08-10T23:57:00.999Z,22.30
2022-08-10T23:59:29.834Z,22.30
